createdAt,value
2022-09-30T00:01:51.355Z,34.00
2022-09-30T00:04:23.266Z,32.10
2022-09-30T00:06:51.896Z,30.80
2022-09-30T00:09:18.745Z,29.77
2022-09-30T00:11:46.676Z,27.03
2022-09-30T00:14:18.582Z,27.40
2022-09-30T00:16:45.139Z,26.93
2022-09-30T00:19:12.343Z,26.93
2022-09-30T00:21:38.961Z,26.70
2022-09-30T00:24:05.781Z,25.13
2022-09-30T00:26:32.948Z,24.60
2022-09-30T00:28:59.952Z,23.97
2022-09-30T00:31:30.186Z,25.57
2022-09-30T00:34:09.422Z,25.13
2022-09-30T00:36:47.491Z,27.73
2022-09-30T00:39:22.819Z,25.30
2022-09-30T00:41:52.078Z,25.70
2022-09-30T00:44:54.196Z,27.83
2022-09-30T00:47:36.040Z,28.27
2022-09-30T00:50:13.988Z,27.23
2022-09-30T00:52:42.106Z,26.93
2022-09-30T00:55:27.812Z,26.13
2022-09-30T00:57:54.678Z,26.97
2022-09-30T01:00:21.509Z,26.97
2022-09-30T01:02:48.905Z,25.13
2022-09-30T01:05:15.371Z,26.17
2022-09-30T01:07:42.263Z,26.10
2022-09-30T01:10:08.883Z,23.20
2022-09-30T01:12:35.358Z,21.87
2022-09-30T01:15:03.080Z,23.17
2022-09-30T01:17:52.534Z,26.43
2022-09-30T01:20:31.056Z,26.87
2022-09-30T01:23:16.344Z,25.67
2022-09-30T01:26:23.635Z,23.37
2022-09-30T01:29:24.396Z,21.50
2022-09-30T01:32:04.586Z,25.50
2022-09-30T01:34:37.800Z,23.77
2022-09-30T01:37:29.281Z,25.13
2022-09-30T01:40:10.579Z,24.47
2022-09-30T01:42:54.934Z,24.00
2022-09-30T01:45:35.152Z,25.43
2022-09-30T01:48:09.145Z,24.20
2022-09-30T01:50:47.841Z,23.30
2022-09-30T01:53:20.857Z,22.33
2022-09-30T01:56:13.105Z,24.27
2022-09-30T01:58:50.728Z,25.13
2022-09-30T02:01:23.418Z,23.27
2022-09-30T02:03:55.703Z,24.50
2022-09-30T02:06:26.415Z,23.67
2022-09-30T02:09:26.815Z,23.50
2022-09-30T02:11:56.351Z,22.10
2022-09-30T02:14:37.685Z,23.50
2022-09-30T02:17:09.664Z,22.40
2022-09-30T02:19:41.553Z,22.13
2022-09-30T02:22:14.205Z,22.03
2022-09-30T02:24:43.984Z,22.77
2022-09-30T02:27:16.273Z,21.20
2022-09-30T02:29:46.894Z,20.47
2022-09-30T02:32:27.086Z,21.80
2022-09-30T02:35:10.309Z,21.90
2022-09-30T02:37:41.348Z,21.27
2022-09-30T02:40:23.985Z,21.70
2022-09-30T02:42:50.644Z,21.43
2022-09-30T02:45:21.123Z,20.93
2022-09-30T02:48:03.316Z,21.63
2022-09-30T02:50:54.993Z,21.73
2022-09-30T02:53:31.359Z,21.83
2022-09-30T02:56:05.056Z,20.60
2022-09-30T02:58:36.664Z,21.17
2022-09-30T03:01:04.384Z,20.73
2022-09-30T03:03:35.464Z,21.13
2022-09-30T03:06:02.976Z,20.17
2022-09-30T03:08:29.724Z,21.57
2022-09-30T03:10:56.499Z,21.23
2022-09-30T03:13:34.578Z,20.77
2022-09-30T03:16:08.910Z,19.40
2022-09-30T03:18:55.214Z,20.87
2022-09-30T03:21:26.827Z,20.30
2022-09-30T03:24:22.990Z,20.97
2022-09-30T03:26:54.423Z,19.83
2022-09-30T03:29:33.301Z,19.77
2022-09-30T03:32:09.114Z,20.47
2022-09-30T03:34:55.451Z,20.70
2022-09-30T03:37:40.181Z,22.23
2022-09-30T03:40:17.780Z,22.60
2022-09-30T03:42:47.977Z,21.23
2022-09-30T03:45:14.289Z,23.07
2022-09-30T03:47:47.515Z,23.27
2022-09-30T03:50:17.020Z,23.67
2022-09-30T03:52:43.501Z,22.83
2022-09-30T03:55:11.739Z,23.57
2022-09-30T03:57:38.349Z,24.43
2022-09-30T04:00:07.039Z,22.70
2022-09-30T04:02:36.327Z,24.33
2022-09-30T04:05:03.058Z,25.13
2022-09-30T04:07:29.718Z,23.97
2022-09-30T04:09:56.411Z,24.63
2022-09-30T04:12:23.104Z,24.40
2022-09-30T04:14:49.532Z,23.63
2022-09-30T04:17:16.004Z,24.53
2022-09-30T04:19:42.473Z,25.30
2022-09-30T04:22:09.470Z,26.27
2022-09-30T04:24:36.202Z,24.93
2022-09-30T04:27:04.563Z,23.33
2022-09-30T04:29:31.255Z,20.70
2022-09-30T04:31:57.933Z,22.83
2022-09-30T04:34:24.425Z,22.03
2022-09-30T04:36:50.839Z,23.07
2022-09-30T04:39:17.268Z,21.60
2022-09-30T04:41:43.742Z,23.53
2022-09-30T04:44:10.616Z,24.67
2022-09-30T04:46:37.121Z,28.07
2022-09-30T04:49:08.816Z,30.00
2022-09-30T04:51:36.269Z,29.50
2022-09-30T04:54:03.257Z,31.67
2022-09-30T04:56:29.880Z,31.17
2022-09-30T04:58:56.469Z,32.40
2022-09-30T05:01:23.163Z,30.93
2022-09-30T05:03:50.777Z,28.27
2022-09-30T05:06:17.354Z,27.70
2022-09-30T05:08:46.121Z,27.20
2022-09-30T05:11:17.956Z,28.03
2022-09-30T05:13:44.803Z,25.87
2022-09-30T05:16:11.610Z,27.80
2022-09-30T05:18:40.921Z,29.80
2022-09-30T05:21:07.439Z,30.90
2022-09-30T05:23:34.241Z,28.50
2022-09-30T05:26:01.614Z,29.03
2022-09-30T05:28:29.145Z,27.97
2022-09-30T05:31:04.551Z,26.93
2022-09-30T05:33:31.100Z,28.23
2022-09-30T05:36:03.003Z,26.87
2022-09-30T05:38:29.893Z,30.23
2022-09-30T05:40:56.630Z,28.27
2022-09-30T05:43:23.807Z,26.63
2022-09-30T05:45:54.846Z,27.97
2022-09-30T05:48:21.757Z,29.50
2022-09-30T05:50:53.146Z,27.57
2022-09-30T05:53:19.623Z,29.50
2022-09-30T05:55:47.616Z,28.73
2022-09-30T05:58:15.424Z,28.33
2022-09-30T06:00:43.218Z,28.97
2022-09-30T06:03:09.838Z,28.20
2022-09-30T06:05:36.991Z,29.00
2022-09-30T06:08:07.237Z,30.03
2022-09-30T06:10:34.595Z,27.83
2022-09-30T06:13:04.587Z,27.97
2022-09-30T06:15:31.517Z,27.33
2022-09-30T06:17:58.446Z,28.23
2022-09-30T06:20:25.401Z,28.50
2022-09-30T06:22:51.923Z,28.10
2022-09-30T06:25:18.585Z,27.80
2022-09-30T06:27:46.818Z,28.17
2022-09-30T06:30:14.224Z,28.83
2022-09-30T06:32:40.919Z,25.53
2022-09-30T06:35:07.738Z,27.07
2022-09-30T06:37:37.806Z,25.53
2022-09-30T06:40:06.056Z,26.80
2022-09-30T06:42:32.741Z,25.80
2022-09-30T06:44:59.349Z,27.10
2022-09-30T06:47:26.543Z,25.80
2022-09-30T06:49:58.448Z,25.50
2022-09-30T06:52:26.216Z,23.47
2022-09-30T06:54:53.310Z,23.73
2022-09-30T06:57:22.595Z,23.07
2022-09-30T06:59:49.999Z,22.03
2022-09-30T07:02:16.970Z,23.30
2022-09-30T07:04:43.688Z,23.90
2022-09-30T07:07:10.844Z,23.07
2022-09-30T07:09:38.014Z,21.80
2022-09-30T07:12:07.536Z,20.93
2022-09-30T07:14:35.958Z,20.60
2022-09-30T07:17:04.702Z,19.57
2022-09-30T07:19:32.085Z,18.03
2022-09-30T07:22:18.825Z,15.90
2022-09-30T07:24:45.473Z,16.10
2022-09-30T07:27:13.635Z,15.57
2022-09-30T07:30:04.314Z,16.30
2022-09-30T07:32:28.141Z,14.93
2022-09-30T07:34:56.204Z,14.70
2022-09-30T07:37:25.406Z,15.20
2022-09-30T07:39:52.625Z,14.63
2022-09-30T07:42:23.212Z,15.33
2022-09-30T07:44:52.129Z,15.17
2022-09-30T07:47:20.188Z,15.60
2022-09-30T07:49:47.432Z,15.97
2022-09-30T07:52:15.003Z,15.90
2022-09-30T07:54:45.454Z,15.03
2022-09-30T07:57:16.586Z,14.80
2022-09-30T07:59:43.399Z,15.23
2022-09-30T08:02:17.876Z,14.40
2022-09-30T08:04:45.267Z,15.03
2022-09-30T08:07:14.107Z,15.03
2022-09-30T08:09:40.872Z,15.23
2022-09-30T08:12:07.831Z,13.90
2022-09-30T08:14:34.458Z,14.10
2022-09-30T08:17:01.146Z,13.57
2022-09-30T08:19:29.220Z,14.07
2022-09-30T08:21:56.440Z,14.83
2022-09-30T08:24:24.269Z,14.60
2022-09-30T08:26:51.635Z,14.30
2022-09-30T08:29:20.348Z,14.87
2022-09-30T08:31:52.115Z,15.70
2022-09-30T08:34:19.022Z,16.43
2022-09-30T08:36:46.686Z,15.97
2022-09-30T08:39:13.826Z,14.77
2022-09-30T08:41:59.751Z,16.37
2022-09-30T08:44:45.288Z,16.57
2022-09-30T08:47:45.894Z,16.03
2022-09-30T08:50:35.115Z,16.07
2022-09-30T08:53:07.470Z,16.10
2022-09-30T08:55:44.428Z,15.47
2022-09-30T08:58:27.540Z,16.10
2022-09-30T09:01:20.023Z,16.23
2022-09-30T09:03:46.590Z,16.07
2022-09-30T09:06:18.839Z,16.70
2022-09-30T09:09:00.221Z,17.47
2022-09-30T09:11:43.524Z,15.73
2022-09-30T09:14:22.279Z,15.93
2022-09-30T09:17:10.597Z,15.60
2022-09-30T09:19:57.889Z,15.13
2022-09-30T09:22:26.978Z,15.30
2022-09-30T09:24:55.370Z,15.23
2022-09-30T09:27:43.392Z,15.53
2022-09-30T09:30:14.846Z,16.57
2022-09-30T09:32:42.443Z,15.10
2022-09-30T09:35:50.065Z,15.83
2022-09-30T09:38:25.290Z,14.53
2022-09-30T09:41:18.422Z,16.03
2022-09-30T09:44:26.462Z,14.47
2022-09-30T09:47:15.149Z,15.90
2022-09-30T09:49:44.800Z,13.97
2022-09-30T09:52:12.615Z,14.20
2022-09-30T09:54:43.331Z,15.47
2022-09-30T09:57:12.383Z,15.17
2022-09-30T09:59:55.518Z,14.03
2022-09-30T10:02:28.977Z,15.20
2022-09-30T10:05:01.522Z,14.90
2022-09-30T10:07:32.869Z,14.33
2022-09-30T10:10:22.365Z,12.87
2022-09-30T10:12:50.588Z,14.63
2022-09-30T10:15:26.562Z,13.97
2022-09-30T10:17:58.485Z,15.50
2022-09-30T10:20:34.390Z,15.30
2022-09-30T10:23:08.232Z,15.00
2022-09-30T10:25:34.744Z,14.33
2022-09-30T10:28:05.028Z,14.20
2022-09-30T10:30:44.917Z,14.00
2022-09-30T10:33:22.148Z,15.50
2022-09-30T10:36:05.028Z,14.97
2022-09-30T10:38:34.143Z,15.47
2022-09-30T10:41:02.471Z,14.37
2022-09-30T10:43:44.939Z,14.90
2022-09-30T10:46:25.963Z,14.90
2022-09-30T10:48:55.696Z,15.07
2022-09-30T10:51:28.911Z,14.47
2022-09-30T10:53:56.563Z,14.23
2022-09-30T10:56:38.111Z,13.37
2022-09-30T10:59:08.095Z,13.93
2022-09-30T11:01:43.507Z,13.33
2022-09-30T11:04:33.991Z,12.33
2022-09-30T11:07:22.385Z,12.67
2022-09-30T11:10:07.069Z,12.73
2022-09-30T11:12:47.449Z,12.33
2022-09-30T11:15:22.310Z,11.43
2022-09-30T11:18:01.765Z,11.70
2022-09-30T11:20:35.634Z,11.70
2022-09-30T11:23:24.097Z,12.47
2022-09-30T11:26:01.439Z,10.13
2022-09-30T11:28:35.257Z,10.07
2022-09-30T11:31:26.431Z,9.87
2022-09-30T11:34:01.974Z,9.40
2022-09-30T11:36:43.163Z,9.47
2022-09-30T11:39:32.211Z,9.47
2022-09-30T11:42:05.499Z,9.13
2022-09-30T11:44:36.550Z,8.50
2022-09-30T11:47:18.958Z,9.27
2022-09-30T11:50:10.220Z,8.77
2022-09-30T11:53:05.164Z,8.97
2022-09-30T11:56:06.160Z,8.53
2022-09-30T11:58:41.591Z,7.73
2022-09-30T12:01:24.989Z,7.63
2022-09-30T12:04:05.376Z,8.50
2022-09-30T12:06:38.137Z,8.53
2022-09-30T12:09:26.175Z,7.93
2022-09-30T12:12:07.922Z,8.00
2022-09-30T12:14:56.263Z,8.03
2022-09-30T12:17:26.878Z,7.27
2022-09-30T12:19:55.563Z,6.80
2022-09-30T12:22:30.073Z,7.67
2022-09-30T12:24:56.655Z,7.87
2022-09-30T12:27:43.400Z,6.67
2022-09-30T12:30:19.114Z,6.90
2022-09-30T12:33:10.872Z,6.93
2022-09-30T12:36:17.549Z,6.60
2022-09-30T12:39:17.846Z,6.87
2022-09-30T12:41:58.010Z,6.67
2022-09-30T12:44:56.547Z,6.77
2022-09-30T12:47:34.625Z,6.60
2022-09-30T12:50:07.205Z,6.70
2022-09-30T12:52:34.267Z,6.63
2022-09-30T12:55:31.379Z,6.40
2022-09-30T12:58:01.817Z,6.60
2022-09-30T13:00:30.918Z,7.20
2022-09-30T13:03:04.169Z,6.97
2022-09-30T13:05:30.613Z,6.57
2022-09-30T13:08:06.244Z,6.87
2022-09-30T13:10:38.810Z,5.93
2022-09-30T13:13:11.308Z,5.77
2022-09-30T13:15:39.711Z,6.40
2022-09-30T13:18:21.712Z,6.73
2022-09-30T13:20:56.725Z,6.40
2022-09-30T13:23:49.176Z,6.50
2022-09-30T13:26:32.196Z,6.80
2022-09-30T13:29:01.700Z,7.10
2022-09-30T13:31:33.494Z,7.13
2022-09-30T13:34:01.359Z,6.77
2022-09-30T13:36:38.817Z,8.07
2022-09-30T13:39:25.468Z,7.13
2022-09-30T13:42:00.806Z,7.13
2022-09-30T13:44:40.250Z,8.80
2022-09-30T13:47:56.856Z,8.70
2022-09-30T13:50:25.836Z,8.17
2022-09-30T13:52:56.488Z,7.63
2022-09-30T13:55:29.814Z,13.17
2022-09-30T13:58:20.200Z,14.17
2022-09-30T14:01:26.955Z,10.90
2022-09-30T14:04:06.525Z,8.53
2022-09-30T14:07:05.377Z,8.57
2022-09-30T14:09:59.071Z,6.53
2022-09-30T14:12:45.076Z,6.27
2022-09-30T14:15:27.675Z,7.00
2022-09-30T14:18:28.722Z,6.37
2022-09-30T14:21:13.995Z,8.87
2022-09-30T14:23:40.625Z,8.00
2022-09-30T14:26:25.537Z,5.90
2022-09-30T14:29:05.438Z,5.83
2022-09-30T14:31:32.362Z,6.17
2022-09-30T14:33:58.889Z,6.10
2022-09-30T14:36:25.871Z,5.93
2022-09-30T14:38:55.331Z,6.00
2022-09-30T14:41:23.188Z,6.33
2022-09-30T14:43:53.609Z,5.23
2022-09-30T14:46:31.444Z,6.00
2022-09-30T14:49:02.151Z,5.63
2022-09-30T14:51:44.746Z,5.10
2022-09-30T14:54:18.161Z,4.90
2022-09-30T14:56:44.665Z,4.57
2022-09-30T14:59:32.149Z,5.03
2022-09-30T15:02:00.815Z,4.90
2022-09-30T15:04:31.793Z,4.93
2022-09-30T15:07:01.326Z,4.70
2022-09-30T15:09:32.471Z,5.17
2022-09-30T15:12:23.926Z,5.13
2022-09-30T15:14:56.062Z,5.03
2022-09-30T15:17:27.705Z,5.07
2022-09-30T15:19:55.947Z,5.57
2022-09-30T15:22:24.088Z,5.23
2022-09-30T15:24:51.300Z,5.23
2022-09-30T15:27:26.664Z,6.80
2022-09-30T15:30:04.845Z,6.33
2022-09-30T15:32:34.553Z,6.20
2022-09-30T15:35:11.628Z,9.07
2022-09-30T15:37:38.215Z,6.57
2022-09-30T15:40:32.132Z,6.83
2022-09-30T15:43:03.385Z,7.70
2022-09-30T15:45:50.217Z,7.10
2022-09-30T15:48:26.066Z,7.53
2022-09-30T15:51:01.490Z,7.57
2022-09-30T15:53:37.021Z,7.57
2022-09-30T15:56:22.724Z,7.37
2022-09-30T15:59:13.213Z,7.77
2022-09-30T16:01:45.735Z,7.70
2022-09-30T16:04:24.383Z,7.53
2022-09-30T16:06:53.371Z,7.13
2022-09-30T16:09:20.124Z,7.87
2022-09-30T16:12:01.122Z,6.67
2022-09-30T16:14:32.025Z,6.63
2022-09-30T16:17:01.227Z,6.50
2022-09-30T16:19:29.327Z,6.50
2022-09-30T16:21:56.738Z,7.20
2022-09-30T16:24:23.829Z,7.00
2022-09-30T16:26:55.766Z,7.00
2022-09-30T16:29:23.074Z,6.97
2022-09-30T16:31:51.062Z,9.80
2022-09-30T16:34:19.753Z,6.50
2022-09-30T16:36:46.284Z,6.67
2022-09-30T16:39:15.613Z,6.03
2022-09-30T16:41:43.075Z,7.57
2022-09-30T16:44:10.515Z,5.50
2022-09-30T16:46:37.402Z,6.00
2022-09-30T16:49:14.942Z,6.43
2022-09-30T16:51:42.111Z,6.87
2022-09-30T16:54:09.391Z,5.70
2022-09-30T16:56:36.083Z,6.97
2022-09-30T16:59:04.607Z,6.63
2022-09-30T17:01:31.125Z,6.00
2022-09-30T17:03:57.929Z,6.27
2022-09-30T17:06:27.846Z,6.17
2022-09-30T17:08:55.042Z,6.50
2022-09-30T17:11:31.281Z,7.37
2022-09-30T17:13:58.021Z,6.53
2022-09-30T17:16:25.208Z,7.20
2022-09-30T17:18:52.419Z,7.60
2022-09-30T17:21:23.957Z,7.87
2022-09-30T17:23:50.822Z,7.93
2022-09-30T17:26:17.847Z,8.30
2022-09-30T17:28:45.040Z,8.33
2022-09-30T17:31:11.993Z,8.27
2022-09-30T17:33:40.050Z,7.57
2022-09-30T17:36:10.334Z,8.33
2022-09-30T17:38:37.773Z,8.23
2022-09-30T17:41:24.595Z,10.23
2022-09-30T17:43:51.228Z,8.10
2022-09-30T17:46:21.247Z,8.07
2022-09-30T17:48:48.776Z,8.87
2022-09-30T17:51:18.604Z,8.53
2022-09-30T17:53:45.480Z,9.10
2022-09-30T17:56:17.185Z,8.73
2022-09-30T17:58:47.373Z,8.93
2022-09-30T18:01:15.426Z,8.47
2022-09-30T18:03:42.084Z,9.13
2022-09-30T18:06:08.652Z,9.90
2022-09-30T18:08:35.866Z,9.83
2022-09-30T18:11:03.284Z,9.87
2022-09-30T18:13:30.278Z,8.20
2022-09-30T18:16:01.831Z,10.07
2022-09-30T18:18:29.603Z,10.50
2022-09-30T18:20:56.121Z,9.83
2022-09-30T18:23:22.866Z,9.00
2022-09-30T18:25:49.979Z,9.90
2022-09-30T18:28:16.922Z,10.33
2022-09-30T18:30:43.797Z,10.00
2022-09-30T18:33:10.973Z,9.53
2022-09-30T18:35:39.279Z,10.33
2022-09-30T18:38:06.872Z,9.07
2022-09-30T18:40:33.678Z,10.30
2022-09-30T18:43:03.270Z,9.33
2022-09-30T18:45:38.279Z,11.23
2022-09-30T18:48:05.217Z,9.97
2022-09-30T18:50:32.718Z,10.20
2022-09-30T18:53:04.635Z,10.13
2022-09-30T18:55:33.351Z,10.33
2022-09-30T18:58:00.186Z,11.37
2022-09-30T19:00:31.272Z,9.83
2022-09-30T19:02:57.914Z,9.77
2022-09-30T19:05:24.554Z,9.83
2022-09-30T19:07:53.709Z,9.43
2022-09-30T19:10:20.568Z,9.93
2022-09-30T19:12:47.254Z,9.20
2022-09-30T19:15:17.666Z,9.63
2022-09-30T19:17:44.902Z,9.23
2022-09-30T19:20:12.380Z,9.07
2022-09-30T19:22:39.019Z,8.60
2022-09-30T19:25:07.751Z,9.47
2022-09-30T19:27:37.768Z,8.30
2022-09-30T19:30:06.340Z,11.53
2022-09-30T19:32:35.192Z,11.33
2022-09-30T19:35:06.458Z,12.47
2022-09-30T19:37:33.650Z,13.40
2022-09-30T19:40:11.649Z,14.60
2022-09-30T19:42:43.009Z,14.57
2022-09-30T19:45:09.600Z,16.40
2022-09-30T19:47:36.634Z,18.30
2022-09-30T19:50:05.330Z,18.20
2022-09-30T19:52:32.425Z,19.87
2022-09-30T19:55:10.873Z,21.27
2022-09-30T19:57:42.148Z,24.33
2022-09-30T20:00:11.655Z,25.70
2022-09-30T20:02:38.308Z,25.97
2022-09-30T20:05:05.574Z,26.47
2022-09-30T20:07:32.226Z,27.57
2022-09-30T20:10:00.811Z,28.60
2022-09-30T20:12:28.221Z,28.80
2022-09-30T20:15:13.525Z,27.83
2022-09-30T20:17:40.237Z,25.90
2022-09-30T20:20:25.996Z,24.73
2022-09-30T20:22:53.388Z,23.77
2022-09-30T20:25:20.325Z,42.67
2022-09-30T20:27:51.976Z,75.03
2022-09-30T20:30:19.863Z,95.43
2022-09-30T20:32:46.368Z,95.20
2022-09-30T20:35:12.987Z,74.27
2022-09-30T20:37:40.719Z,55.33
2022-09-30T20:40:09.335Z,49.20
2022-09-30T20:42:37.882Z,42.73
2022-09-30T20:45:10.638Z,42.50
2022-09-30T20:47:42.835Z,38.33
2022-09-30T20:50:10.343Z,34.67
2022-09-30T20:52:36.940Z,33.93
2022-09-30T20:55:05.481Z,37.97
2022-09-30T20:57:31.938Z,32.80
2022-09-30T20:59:59.956Z,30.63
2022-09-30T21:02:30.340Z,30.00
2022-09-30T21:04:57.865Z,26.93
2022-09-30T21:07:25.325Z,26.73
2022-09-30T21:09:51.889Z,24.47
2022-09-30T21:12:18.592Z,27.30
2022-09-30T21:14:45.232Z,26.63
2022-09-30T21:17:11.688Z,25.50
2022-09-30T21:19:38.255Z,25.67
2022-09-30T21:22:04.893Z,25.97
2022-09-30T21:24:31.307Z,23.33
2022-09-30T21:26:57.759Z,27.10
2022-09-30T21:29:24.164Z,27.10
2022-09-30T21:31:50.736Z,25.10
2022-09-30T21:34:17.244Z,24.60
2022-09-30T21:36:43.651Z,22.30
2022-09-30T21:39:11.623Z,24.33
2022-09-30T21:41:40.542Z,24.47
2022-09-30T21:44:07.258Z,20.60
2022-09-30T21:46:35.613Z,21.83
2022-09-30T21:49:23.554Z,24.53
2022-09-30T21:51:52.844Z,23.00
2022-09-30T21:54:19.886Z,22.83
2022-09-30T21:56:46.554Z,23.00
2022-09-30T21:59:13.205Z,24.03
2022-09-30T22:01:39.890Z,22.50
2022-09-30T22:04:07.049Z,23.00
2022-09-30T22:06:33.904Z,24.00
2022-09-30T22:09:01.504Z,24.80
2022-09-30T22:11:29.197Z,22.37
2022-09-30T22:13:57.272Z,22.60
2022-09-30T22:16:27.033Z,21.03
2022-09-30T22:18:54.819Z,21.57
2022-09-30T22:21:21.543Z,22.30
2022-09-30T22:23:48.390Z,22.03
2022-09-30T22:26:20.138Z,22.37
2022-09-30T22:28:48.154Z,21.10
2022-09-30T22:31:19.731Z,20.97
2022-09-30T22:34:09.200Z,20.90
2022-09-30T22:36:54.105Z,19.67
2022-09-30T22:39:21.104Z,21.83
2022-09-30T22:41:49.044Z,22.60
2022-09-30T22:44:17.879Z,21.30
2022-09-30T22:46:44.693Z,20.77
2022-09-30T22:49:11.764Z,20.83
2022-09-30T22:51:38.556Z,21.00
2022-09-30T22:54:05.757Z,21.37
2022-09-30T22:56:32.560Z,20.57
2022-09-30T22:59:00.451Z,21.40
2022-09-30T23:01:29.458Z,19.87
2022-09-30T23:03:56.399Z,22.30
2022-09-30T23:06:24.594Z,22.90
2022-09-30T23:08:51.596Z,24.97
2022-09-30T23:11:18.761Z,29.77
2022-09-30T23:13:49.768Z,29.80
2022-09-30T23:16:16.960Z,32.10
2022-09-30T23:18:46.322Z,28.80
2022-09-30T23:21:15.526Z,29.43
2022-09-30T23:23:42.103Z,30.03
2022-09-30T23:26:16.390Z,30.17
2022-09-30T23:28:43.612Z,28.80
2022-09-30T23:31:12.625Z,31.57
2022-09-30T23:33:44.572Z,27.30
2022-09-30T23:36:11.385Z,25.93
2022-09-30T23:38:37.833Z,28.27
2022-09-30T23:41:05.192Z,29.03
2022-09-30T23:43:34.074Z,26.07
2022-09-30T23:46:01.410Z,27.70
2022-09-30T23:48:28.023Z,27.00
2022-09-30T23:50:54.647Z,27.17
2022-09-30T23:53:22.468Z,27.33
2022-09-30T23:56:03.001Z,29.20
2022-09-30T23:58:29.862Z,27.73
